sensor_id;sensor_type;location;lat;lon;timestamp;P1;durP1;ratioP1;P2;durP2;ratioP2
12208;SDS011;6167;43.080;25.634;2023-07-02T00:01:09;7.78;;;7.00;;
12208;SDS011;6167;43.080;25.634;2023-07-02T00:03:37;8.13;;;7.32;;
12208;SDS011;6167;43.080;25.634;2023-07-02T00:06:03;7.60;;;7.00;;
12208;SDS011;6167;43.080;25.634;2023-07-02T00:08:31;8.85;;;7.38;;
12208;SDS011;6167;43.080;25.634;2023-07-02T00:10:58;8.07;;;7.30;;
12208;SDS011;6167;43.080;25.634;2023-07-02T00:13:24;7.82;;;6.90;;
12208;SDS011;6167;43.080;25.634;2023-07-02T00:15:50;7.50;;;6.82;;
12208;SDS011;6167;43.080;25.634;2023-07-02T00:18:17;7.10;;;6.43;;
12208;SDS011;6167;43.080;25.634;2023-07-02T00:20:43;6.80;;;6.13;;
12208;SDS011;6167;43.080;25.634;2023-07-02T00:23:10;6.80;;;6.20;;
12208;SDS011;6167;43.080;25.634;2023-07-02T00:25:39;7.18;;;6.45;;
12208;SDS011;6167;43.080;25.634;2023-07-02T00:28:06;7.15;;;6.57;;
12208;SDS011;6167;43.080;25.634;2023-07-02T00:30:32;7.82;;;7.00;;
12208;SDS011;6167;43.080;25.634;2023-07-02T00:32:59;7.30;;;6.70;;
12208;SDS011;6167;43.080;25.634;2023-07-02T00:35:25;6.57;;;6.07;;
12208;SDS011;6167;43.080;25.634;2023-07-02T00:37:52;6.93;;;6.43;;
12208;SDS011;6167;43.080;25.634;2023-07-02T00:40:18;7.32;;;6.72;;
12208;SDS011;6167;43.080;25.634;2023-07-02T00:42:46;7.15;;;6.55;;
12208;SDS011;6167;43.080;25.634;2023-07-02T00:45:13;7.35;;;6.72;;
12208;SDS011;6167;43.080;25.634;2023-07-02T00:47:39;9.10;;;7.50;;
12208;SDS011;6167;43.080;25.634;2023-07-02T00:50:06;7.75;;;7.15;;
12208;SDS011;6167;43.080;25.634;2023-07-02T00:52:34;7.93;;;7.13;;
12208;SDS011;6167;43.080;25.634;2023-07-02T00:55:01;8.18;;;7.47;;
12208;SDS011;6167;43.080;25.634;2023-07-02T00:57:27;8.73;;;7.93;;
12208;SDS011;6167;43.080;25.634;2023-07-02T00:59:56;8.25;;;7.22;;
12208;SDS011;6167;43.080;25.634;2023-07-02T01:02:22;10.52;;;7.45;;
12208;SDS011;6167;43.080;25.634;2023-07-02T01:04:50;10.15;;;7.47;;
12208;SDS011;6167;43.080;25.634;2023-07-02T01:07:17;8.60;;;7.80;;
12208;SDS011;6167;43.080;25.634;2023-07-02T01:09:43;8.20;;;7.40;;
12208;SDS011;6167;43.080;25.634;2023-07-02T01:12:10;8.35;;;7.65;;
12208;SDS011;6167;43.080;25.634;2023-07-02T01:14:38;8.27;;;7.05;;
12208;SDS011;6167;43.080;25.634;2023-07-02T01:17:06;7.68;;;6.97;;
12208;SDS011;6167;43.080;25.634;2023-07-02T01:19:44;8.00;;;7.25;;
12208;SDS011;6167;43.080;25.634;2023-07-02T01:22:11;8.35;;;7.65;;
12208;SDS011;6167;43.080;25.634;2023-07-02T01:24:38;8.27;;;7.57;;
12208;SDS011;6167;43.080;25.634;2023-07-02T01:27:05;8.05;;;7.32;;
12208;SDS011;6167;43.080;25.634;2023-07-02T01:29:31;8.15;;;7.35;;
12208;SDS011;6167;43.080;25.634;2023-07-02T01:32:01;8.95;;;7.63;;
12208;SDS011;6167;43.080;25.634;2023-07-02T01:34:28;8.20;;;7.40;;
12208;SDS011;6167;43.080;25.634;2023-07-02T01:36:56;8.23;;;7.47;;
12208;SDS011;6167;43.080;25.634;2023-07-02T01:39:22;8.27;;;7.47;;
12208;SDS011;6167;43.080;25.634;2023-07-02T01:41:49;8.73;;;8.02;;
12208;SDS011;6167;43.080;25.634;2023-07-02T01:44:16;9.55;;;7.88;;
12208;SDS011;6167;43.080;25.634;2023-07-02T01:46:43;8.05;;;7.35;;
12208;SDS011;6167;43.080;25.634;2023-07-02T01:49:10;8.18;;;7.45;;
12208;SDS011;6167;43.080;25.634;2023-07-02T01:51:36;8.18;;;7.35;;
12208;SDS011;6167;43.080;25.634;2023-07-02T01:54:04;8.25;;;7.55;;
12208;SDS011;6167;43.080;25.634;2023-07-02T01:56:31;8.27;;;7.55;;
12208;SDS011;6167;43.080;25.634;2023-07-02T01:58:58;8.35;;;7.55;;
12208;SDS011;6167;43.080;25.634;2023-07-02T02:01:24;8.35;;;7.53;;
12208;SDS011;6167;43.080;25.634;2023-07-02T02:03:51;9.73;;;7.53;;
12208;SDS011;6167;43.080;25.634;2023-07-02T02:06:17;8.35;;;7.65;;
12208;SDS011;6167;43.080;25.634;2023-07-02T02:08:44;8.43;;;7.63;;
12208;SDS011;6167;43.080;25.634;2023-07-02T02:11:12;8.32;;;7.63;;
12208;SDS011;6167;43.080;25.634;2023-07-02T02:13:38;8.48;;;7.68;;
12208;SDS011;6167;43.080;25.634;2023-07-02T02:16:06;8.35;;;7.65;;
12208;SDS011;6167;43.080;25.634;2023-07-02T02:18:33;8.45;;;7.72;;
12208;SDS011;6167;43.080;25.634;2023-07-02T02:21:00;8.30;;;7.50;;
12208;SDS011;6167;43.080;25.634;2023-07-02T02:23:26;11.27;;;8.07;;
12208;SDS011;6167;43.080;25.634;2023-07-02T02:25:52;8.80;;;8.00;;
12208;SDS011;6167;43.080;25.634;2023-07-02T02:28:20;8.32;;;7.63;;
12208;SDS011;6167;43.080;25.634;2023-07-02T02:30:47;9.30;;;8.27;;
12208;SDS011;6167;43.080;25.634;2023-07-02T02:33:14;9.32;;;8.40;;
12208;SDS011;6167;43.080;25.634;2023-07-02T02:35:40;8.27;;;7.55;;
12208;SDS011;6167;43.080;25.634;2023-07-02T02:38:07;9.70;;;8.48;;
12208;SDS011;6167;43.080;25.634;2023-07-02T02:40:33;9.05;;;8.25;;
12208;SDS011;6167;43.080;25.634;2023-07-02T02:43:00;9.38;;;8.68;;
12208;SDS011;6167;43.080;25.634;2023-07-02T02:45:28;9.20;;;8.40;;
12208;SDS011;6167;43.080;25.634;2023-07-02T02:47:54;9.93;;;8.95;;
12208;SDS011;6167;43.080;25.634;2023-07-02T02:50:21;9.25;;;8.35;;
12208;SDS011;6167;43.080;25.634;2023-07-02T02:52:48;10.13;;;8.77;;
12208;SDS011;6167;43.080;25.634;2023-07-02T02:55:14;10.48;;;9.50;;
12208;SDS011;6167;43.080;25.634;2023-07-02T02:57:41;9.73;;;8.77;;
12208;SDS011;6167;43.080;25.634;2023-07-02T03:00:08;10.65;;;9.63;;
12208;SDS011;6167;43.080;25.634;2023-07-02T03:02:36;10.32;;;9.43;;
12208;SDS011;6167;43.080;25.634;2023-07-02T03:05:03;9.80;;;8.93;;
12208;SDS011;6167;43.080;25.634;2023-07-02T03:07:29;10.93;;;9.40;;
12208;SDS011;6167;43.080;25.634;2023-07-02T03:09:56;10.18;;;9.27;;
12208;SDS011;6167;43.080;25.634;2023-07-02T03:12:22;10.90;;;9.02;;
12208;SDS011;6167;43.080;25.634;2023-07-02T03:14:49;10.50;;;9.50;;
12208;SDS011;6167;43.080;25.634;2023-07-02T03:17:18;11.57;;;9.23;;
12208;SDS011;6167;43.080;25.634;2023-07-02T03:19:46;10.23;;;9.30;;
12208;SDS011;6167;43.080;25.634;2023-07-02T03:22:12;11.02;;;10.02;;
12208;SDS011;6167;43.080;25.634;2023-07-02T03:24:39;11.10;;;9.70;;
12208;SDS011;6167;43.080;25.634;2023-07-02T03:27:06;11.55;;;10.45;;
12208;SDS011;6167;43.080;25.634;2023-07-02T03:29:33;13.00;;;10.68;;
12208;SDS011;6167;43.080;25.634;2023-07-02T03:32:00;14.65;;;11.27;;
12208;SDS011;6167;43.080;25.634;2023-07-02T03:34:26;13.23;;;11.85;;
12208;SDS011;6167;43.080;25.634;2023-07-02T03:36:54;12.52;;;11.02;;
12208;SDS011;6167;43.080;25.634;2023-07-02T03:39:21;12.13;;;11.00;;
12208;SDS011;6167;43.080;25.634;2023-07-02T03:41:47;12.82;;;10.68;;
12208;SDS011;6167;43.080;25.634;2023-07-02T03:44:14;14.05;;;11.32;;
12208;SDS011;6167;43.080;25.634;2023-07-02T03:46:40;12.23;;;11.00;;
12208;SDS011;6167;43.080;25.634;2023-07-02T03:49:07;11.73;;;10.52;;
12208;SDS011;6167;43.080;25.634;2023-07-02T03:51:33;11.77;;;10.68;;
12208;SDS011;6167;43.080;25.634;2023-07-02T03:54:01;11.90;;;10.65;;
12208;SDS011;6167;43.080;25.634;2023-07-02T03:56:28;11.20;;;10.10;;
12208;SDS011;6167;43.080;25.634;2023-07-02T03:58:54;11.93;;;9.77;;
12208;SDS011;6167;43.080;25.634;2023-07-02T04:01:21;11.30;;;10.30;;
12208;SDS011;6167;43.080;25.634;2023-07-02T04:03:47;11.13;;;10.00;;
12208;SDS011;6167;43.080;25.634;2023-07-02T04:06:14;11.23;;;10.07;;
12208;SDS011;6167;43.080;25.634;2023-07-02T04:08:41;11.10;;;10.10;;
12208;SDS011;6167;43.080;25.634;2023-07-02T04:11:09;12.10;;;10.95;;
12208;SDS011;6167;43.080;25.634;2023-07-02T04:13:36;14.68;;;10.85;;
12208;SDS011;6167;43.080;25.634;2023-07-02T04:16:03;11.40;;;9.98;;
12208;SDS011;6167;43.080;25.634;2023-07-02T04:18:29;11.55;;;10.45;;
12208;SDS011;6167;43.080;25.634;2023-07-02T04:20:56;11.80;;;10.70;;
12208;SDS011;6167;43.080;25.634;2023-07-02T04:23:23;12.00;;;10.75;;
12208;SDS011;6167;43.080;25.634;2023-07-02T04:25:49;13.40;;;11.32;;
12208;SDS011;6167;43.080;25.634;2023-07-02T04:28:17;13.18;;;11.88;;
12208;SDS011;6167;43.080;25.634;2023-07-02T04:30:44;11.73;;;10.63;;
12208;SDS011;6167;43.080;25.634;2023-07-02T04:33:11;13.93;;;10.63;;
12208;SDS011;6167;43.080;25.634;2023-07-02T04:35:39;12.00;;;11.00;;
12208;SDS011;6167;43.080;25.634;2023-07-02T04:38:05;14.45;;;11.05;;
12208;SDS011;6167;43.080;25.634;2023-07-02T04:40:32;23.10;;;21.05;;
12208;SDS011;6167;43.080;25.634;2023-07-02T04:42:59;11.90;;;10.38;;
12208;SDS011;6167;43.080;25.634;2023-07-02T04:45:26;11.90;;;10.40;;
12208;SDS011;6167;43.080;25.634;2023-07-02T04:47:57;11.27;;;10.27;;
12208;SDS011;6167;43.080;25.634;2023-07-02T04:50:25;11.23;;;10.18;;
12208;SDS011;6167;43.080;25.634;2023-07-02T04:52:52;10.50;;;9.50;;
12208;SDS011;6167;43.080;25.634;2023-07-02T04:55:18;10.15;;;9.25;;
12208;SDS011;6167;43.080;25.634;2023-07-02T04:57:45;10.05;;;9.13;;
12208;SDS011;6167;43.080;25.634;2023-07-02T05:00:12;11.15;;;9.60;;
12208;SDS011;6167;43.080;25.634;2023-07-02T05:02:40;10.10;;;9.10;;
12208;SDS011;6167;43.080;25.634;2023-07-02T05:05:07;10.02;;;9.13;;
12208;SDS011;6167;43.080;25.634;2023-07-02T05:07:34;9.95;;;9.05;;
12208;SDS011;6167;43.080;25.634;2023-07-02T05:10:00;10.00;;;9.10;;
12208;SDS011;6167;43.080;25.634;2023-07-02T05:12:27;10.40;;;9.50;;
12208;SDS011;6167;43.080;25.634;2023-07-02T05:14:53;9.50;;;8.60;;
12208;SDS011;6167;43.080;25.634;2023-07-02T05:17:20;11.50;;;9.02;;
12208;SDS011;6167;43.080;25.634;2023-07-02T05:19:48;11.40;;;8.60;;
12208;SDS011;6167;43.080;25.634;2023-07-02T05:22:14;8.70;;;8.00;;
12208;SDS011;6167;43.080;25.634;2023-07-02T05:24:41;8.70;;;8.00;;
12208;SDS011;6167;43.080;25.634;2023-07-02T05:27:09;8.23;;;7.63;;
12208;SDS011;6167;43.080;25.634;2023-07-02T05:29:35;8.38;;;7.55;;
12208;SDS011;6167;43.080;25.634;2023-07-02T05:32:02;8.90;;;8.07;;
12208;SDS011;6167;43.080;25.634;2023-07-02T05:34:28;8.85;;;8.00;;
12208;SDS011;6167;43.080;25.634;2023-07-02T05:36:56;8.73;;;7.93;;
12208;SDS011;6167;43.080;25.634;2023-07-02T05:39:22;9.13;;;8.00;;
12208;SDS011;6167;43.080;25.634;2023-07-02T05:41:49;10.35;;;8.00;;
12208;SDS011;6167;43.080;25.634;2023-07-02T05:44:15;9.45;;;8.20;;
12208;SDS011;6167;43.080;25.634;2023-07-02T05:46:42;8.43;;;7.72;;
12208;SDS011;6167;43.080;25.634;2023-07-02T05:49:09;9.10;;;8.27;;
12208;SDS011;6167;43.080;25.634;2023-07-02T05:51:35;9.10;;;8.23;;
12208;SDS011;6167;43.080;25.634;2023-07-02T05:54:03;9.23;;;8.52;;
12208;SDS011;6167;43.080;25.634;2023-07-02T05:56:30;8.90;;;8.20;;
12208;SDS011;6167;43.080;25.634;2023-07-02T05:58:56;9.18;;;8.27;;
12208;SDS011;6167;43.080;25.634;2023-07-02T06:01:22;9.13;;;8.38;;
12208;SDS011;6167;43.080;25.634;2023-07-02T06:03:49;8.85;;;7.57;;
12208;SDS011;6167;43.080;25.634;2023-07-02T06:06:15;9.45;;;8.55;;
12208;SDS011;6167;43.080;25.634;2023-07-02T06:08:42;9.82;;;9.02;;
12208;SDS011;6167;43.080;25.634;2023-07-02T06:11:10;9.15;;;8.43;;
12208;SDS011;6167;43.080;25.634;2023-07-02T06:13:36;9.25;;;8.55;;
12208;SDS011;6167;43.080;25.634;2023-07-02T06:16:03;10.77;;;9.77;;
12208;SDS011;6167;43.080;25.634;2023-07-02T06:18:30;8.43;;;7.60;;
12208;SDS011;6167;43.080;25.634;2023-07-02T06:20:56;9.35;;;8.57;;
12208;SDS011;6167;43.080;25.634;2023-07-02T06:23:23;11.68;;;10.75;;
12208;SDS011;6167;43.080;25.634;2023-07-02T06:25:49;11.38;;;10.48;;
12208;SDS011;6167;43.080;25.634;2023-07-02T06:28:19;10.45;;;9.57;;
12208;SDS011;6167;43.080;25.634;2023-07-02T06:30:46;8.93;;;8.23;;
12208;SDS011;6167;43.080;25.634;2023-07-02T06:33:15;8.95;;;8.25;;
12208;SDS011;6167;43.080;25.634;2023-07-02T06:35:41;8.73;;;8.00;;
12208;SDS011;6167;43.080;25.634;2023-07-02T06:38:08;8.15;;;7.40;;
12208;SDS011;6167;43.080;25.634;2023-07-02T06:40:34;7.38;;;6.85;;
12208;SDS011;6167;43.080;25.634;2023-07-02T06:43:01;7.60;;;6.90;;
12208;SDS011;6167;43.080;25.634;2023-07-02T06:45:29;7.72;;;7.13;;
12208;SDS011;6167;43.080;25.634;2023-07-02T06:47:55;7.82;;;7.03;;
12208;SDS011;6167;43.080;25.634;2023-07-02T06:50:22;8.50;;;7.68;;
12208;SDS011;6167;43.080;25.634;2023-07-02T06:52:49;8.95;;;8.18;;
12208;SDS011;6167;43.080;25.634;2023-07-02T06:55:15;9.05;;;8.15;;
12208;SDS011;6167;43.080;25.634;2023-07-02T06:57:42;8.70;;;8.00;;
12208;SDS011;6167;43.080;25.634;2023-07-02T07:00:10;10.30;;;9.30;;
12208;SDS011;6167;43.080;25.634;2023-07-02T07:02:38;9.48;;;8.73;;
12208;SDS011;6167;43.080;25.634;2023-07-02T07:05:04;10.30;;;9.30;;
12208;SDS011;6167;43.080;25.634;2023-07-02T07:07:31;9.82;;;9.02;;
12208;SDS011;6167;43.080;25.634;2023-07-02T07:10:00;9.57;;;8.73;;
12208;SDS011;6167;43.080;25.634;2023-07-02T07:12:26;9.10;;;8.30;;
12208;SDS011;6167;43.080;25.634;2023-07-02T07:14:53;10.93;;;9.45;;
12208;SDS011;6167;43.080;25.634;2023-07-02T07:17:20;10.07;;;8.70;;
12208;SDS011;6167;43.080;25.634;2023-07-02T07:19:48;9.40;;;8.45;;
12208;SDS011;6167;43.080;25.634;2023-07-02T07:22:15;7.95;;;7.25;;
12208;SDS011;6167;43.080;25.634;2023-07-02T07:24:42;6.93;;;6.22;;
12208;SDS011;6167;43.080;25.634;2023-07-02T07:27:08;6.40;;;5.80;;
12208;SDS011;6167;43.080;25.634;2023-07-02T07:29:35;6.68;;;6.07;;
12208;SDS011;6167;43.080;25.634;2023-07-02T07:32:02;7.10;;;6.10;;
12208;SDS011;6167;43.080;25.634;2023-07-02T07:34:29;9.82;;;7.40;;
12208;SDS011;6167;43.080;25.634;2023-07-02T07:36:58;23.77;;;13.40;;
12208;SDS011;6167;43.080;25.634;2023-07-02T07:39:27;22.85;;;14.15;;
12208;SDS011;6167;43.080;25.634;2023-07-02T07:41:54;9.07;;;6.93;;
12208;SDS011;6167;43.080;25.634;2023-07-02T07:44:20;6.60;;;6.00;;
12208;SDS011;6167;43.080;25.634;2023-07-02T07:46:47;7.32;;;6.18;;
12208;SDS011;6167;43.080;25.634;2023-07-02T07:49:14;6.53;;;5.75;;
12208;SDS011;6167;43.080;25.634;2023-07-02T07:51:40;7.80;;;6.18;;
12208;SDS011;6167;43.080;25.634;2023-07-02T07:54:08;8.43;;;6.10;;
12208;SDS011;6167;43.080;25.634;2023-07-02T07:56:35;7.03;;;6.32;;
12208;SDS011;6167;43.080;25.634;2023-07-02T07:59:01;7.65;;;6.05;;
12208;SDS011;6167;43.080;25.634;2023-07-02T08:01:28;6.85;;;6.15;;
12208;SDS011;6167;43.080;25.634;2023-07-02T08:03:54;7.63;;;6.20;;
12208;SDS011;6167;43.080;25.634;2023-07-02T08:06:21;7.28;;;5.90;;
12208;SDS011;6167;43.080;25.634;2023-07-02T08:08:48;6.32;;;5.72;;
12208;SDS011;6167;43.080;25.634;2023-07-02T08:11:15;7.63;;;5.63;;
12208;SDS011;6167;43.080;25.634;2023-07-02T08:13:42;7.53;;;6.30;;
12208;SDS011;6167;43.080;25.634;2023-07-02T08:16:09;8.80;;;6.20;;
12208;SDS011;6167;43.080;25.634;2023-07-02T08:18:36;31.75;;;7.45;;
12208;SDS011;6167;43.080;25.634;2023-07-02T08:21:02;6.68;;;5.90;;
12208;SDS011;6167;43.080;25.634;2023-07-02T08:23:31;6.05;;;5.45;;
12208;SDS011;6167;43.080;25.634;2023-07-02T08:25:58;6.28;;;5.75;;
12208;SDS011;6167;43.080;25.634;2023-07-02T08:28:26;6.75;;;5.72;;
12208;SDS011;6167;43.080;25.634;2023-07-02T08:30:52;8.73;;;6.40;;
12208;SDS011;6167;43.080;25.634;2023-07-02T08:33:19;8.05;;;6.43;;
12208;SDS011;6167;43.080;25.634;2023-07-02T08:35:45;7.00;;;6.30;;
12208;SDS011;6167;43.080;25.634;2023-07-02T08:38:12;8.02;;;6.55;;
12208;SDS011;6167;43.080;25.634;2023-07-02T08:40:38;8.98;;;8.05;;
12208;SDS011;6167;43.080;25.634;2023-07-02T08:43:08;7.68;;;6.05;;
12208;SDS011;6167;43.080;25.634;2023-07-02T08:45:36;6.63;;;5.78;;
12208;SDS011;6167;43.080;25.634;2023-07-02T08:48:03;8.70;;;6.75;;
12208;SDS011;6167;43.080;25.634;2023-07-02T08:50:31;9.10;;;7.95;;
12208;SDS011;6167;43.080;25.634;2023-07-02T08:52:57;7.50;;;6.80;;
12208;SDS011;6167;43.080;25.634;2023-07-02T08:55:24;6.53;;;5.75;;
12208;SDS011;6167;43.080;25.634;2023-07-02T08:57:53;6.82;;;5.82;;
12208;SDS011;6167;43.080;25.634;2023-07-02T09:00:20;6.30;;;5.70;;
12208;SDS011;6167;43.080;25.634;2023-07-02T09:02:48;7.18;;;6.13;;
12208;SDS011;6167;43.080;25.634;2023-07-02T09:05:14;6.65;;;5.95;;
12208;SDS011;6167;43.080;25.634;2023-07-02T09:07:44;7.03;;;6.32;;
12208;SDS011;6167;43.080;25.634;2023-07-02T09:10:13;7.35;;;6.65;;
12208;SDS011;6167;43.080;25.634;2023-07-02T09:12:40;8.23;;;7.53;;
12208;SDS011;6167;43.080;25.634;2023-07-02T09:15:08;9.13;;;7.43;;
12208;SDS011;6167;43.080;25.634;2023-07-02T09:17:38;6.78;;;6.07;;
12208;SDS011;6167;43.080;25.634;2023-07-02T09:20:07;9.85;;;6.50;;
12208;SDS011;6167;43.080;25.634;2023-07-02T09:22:33;7.60;;;6.32;;
12208;SDS011;6167;43.080;25.634;2023-07-02T09:25:00;10.15;;;6.65;;
12208;SDS011;6167;43.080;25.634;2023-07-02T09:27:34;6.85;;;6.25;;
12208;SDS011;6167;43.080;25.634;2023-07-02T09:30:05;6.68;;;5.97;;
12208;SDS011;6167;43.080;25.634;2023-07-02T09:32:32;7.63;;;5.70;;
12208;SDS011;6167;43.080;25.634;2023-07-02T09:34:59;6.45;;;5.53;;
12208;SDS011;6167;43.080;25.634;2023-07-02T09:37:27;6.25;;;5.28;;
12208;SDS011;6167;43.080;25.634;2023-07-02T09:39:55;5.68;;;5.13;;
12208;SDS011;6167;43.080;25.634;2023-07-02T09:42:21;6.63;;;5.97;;
12208;SDS011;6167;43.080;25.634;2023-07-02T09:44:49;7.40;;;6.57;;
12208;SDS011;6167;43.080;25.634;2023-07-02T09:47:18;6.90;;;6.15;;
12208;SDS011;6167;43.080;25.634;2023-07-02T09:49:48;6.55;;;5.82;;
12208;SDS011;6167;43.080;25.634;2023-07-02T09:52:15;7.43;;;6.55;;
12208;SDS011;6167;43.080;25.634;2023-07-02T09:54:45;6.25;;;5.75;;
12208;SDS011;6167;43.080;25.634;2023-07-02T09:57:12;6.93;;;6.22;;
12208;SDS011;6167;43.080;25.634;2023-07-02T09:59:39;6.78;;;6.07;;
12208;SDS011;6167;43.080;25.634;2023-07-02T10:02:06;6.40;;;5.80;;
12208;SDS011;6167;43.080;25.634;2023-07-02T10:04:40;7.22;;;5.90;;
12208;SDS011;6167;43.080;25.634;2023-07-02T10:07:07;6.55;;;5.95;;
12208;SDS011;6167;43.080;25.634;2023-07-02T10:09:34;6.18;;;5.57;;
12208;SDS011;6167;43.080;25.634;2023-07-02T10:12:14;6.60;;;6.00;;
12208;SDS011;6167;43.080;25.634;2023-07-02T10:14:41;6.20;;;5.30;;
12208;SDS011;6167;43.080;25.634;2023-07-02T10:17:07;6.25;;;5.65;;
12208;SDS011;6167;43.080;25.634;2023-07-02T10:19:34;6.40;;;5.80;;
12208;SDS011;6167;43.080;25.634;2023-07-02T10:22:01;6.22;;;5.18;;
12208;SDS011;6167;43.080;25.634;2023-07-02T10:24:28;6.20;;;5.60;;
12208;SDS011;6167;43.080;25.634;2023-07-02T10:26:55;6.90;;;5.43;;
12208;SDS011;6167;43.080;25.634;2023-07-02T10:29:24;5.93;;;5.43;;
12208;SDS011;6167;43.080;25.634;2023-07-02T10:31:51;6.05;;;4.97;;
12208;SDS011;6167;43.080;25.634;2023-07-02T10:34:28;7.40;;;5.25;;
12208;SDS011;6167;43.080;25.634;2023-07-02T10:36:54;5.47;;;4.93;;
12208;SDS011;6167;43.080;25.634;2023-07-02T10:39:22;6.45;;;4.95;;
12208;SDS011;6167;43.080;25.634;2023-07-02T10:41:50;5.75;;;4.57;;
12208;SDS011;6167;43.080;25.634;2023-07-02T10:44:16;6.05;;;4.85;;
12208;SDS011;6167;43.080;25.634;2023-07-02T10:46:45;5.50;;;5.00;;
12208;SDS011;6167;43.080;25.634;2023-07-02T10:49:11;7.80;;;5.47;;
12208;SDS011;6167;43.080;25.634;2023-07-02T10:51:38;7.95;;;6.45;;
12208;SDS011;6167;43.080;25.634;2023-07-02T10:54:05;10.18;;;5.32;;
12208;SDS011;6167;43.080;25.634;2023-07-02T10:56:32;6.32;;;5.72;;
12208;SDS011;6167;43.080;25.634;2023-07-02T10:58:58;6.78;;;5.18;;
12208;SDS011;6167;43.080;25.634;2023-07-02T11:01:25;5.75;;;5.25;;
12208;SDS011;6167;43.080;25.634;2023-07-02T11:03:57;6.20;;;5.60;;
12208;SDS011;6167;43.080;25.634;2023-07-02T11:06:24;6.22;;;5.50;;
12208;SDS011;6167;43.080;25.634;2023-07-02T11:08:51;6.78;;;5.22;;
12208;SDS011;6167;43.080;25.634;2023-07-02T11:11:17;5.85;;;5.25;;
12208;SDS011;6167;43.080;25.634;2023-07-02T11:13:46;7.35;;;5.28;;
12208;SDS011;6167;43.080;25.634;2023-07-02T11:16:23;7.13;;;6.30;;
12208;SDS011;6167;43.080;25.634;2023-07-02T11:18:54;6.18;;;5.50;;
12208;SDS011;6167;43.080;25.634;2023-07-02T11:21:22;6.40;;;5.50;;
12208;SDS011;6167;43.080;25.634;2023-07-02T11:23:49;5.28;;;4.78;;
12208;SDS011;6167;43.080;25.634;2023-07-02T11:26:16;5.35;;;4.82;;
12208;SDS011;6167;43.080;25.634;2023-07-02T11:28:49;6.00;;;5.30;;
12208;SDS011;6167;43.080;25.634;2023-07-02T11:31:25;5.90;;;5.30;;
12208;SDS011;6167;43.080;25.634;2023-07-02T11:33:59;5.57;;;5.07;;
12208;SDS011;6167;43.080;25.634;2023-07-02T11:36:27;6.03;;;5.38;;
12208;SDS011;6167;43.080;25.634;2023-07-02T11:38:55;5.72;;;4.93;;
12208;SDS011;6167;43.080;25.634;2023-07-02T11:41:21;5.60;;;4.93;;
12208;SDS011;6167;43.080;25.634;2023-07-02T11:43:48;6.38;;;5.15;;
12208;SDS011;6167;43.080;25.634;2023-07-02T11:46:14;6.18;;;5.22;;
12208;SDS011;6167;43.080;25.634;2023-07-02T11:48:41;5.40;;;4.90;;
12208;SDS011;6167;43.080;25.634;2023-07-02T11:51:08;5.15;;;4.68;;
12208;SDS011;6167;43.080;25.634;2023-07-02T11:53:37;6.15;;;5.53;;
12208;SDS011;6167;43.080;25.634;2023-07-02T11:56:05;6.25;;;5.65;;
12208;SDS011;6167;43.080;25.634;2023-07-02T11:58:32;7.78;;;6.13;;
12208;SDS011;6167;43.080;25.634;2023-07-02T12:00:58;5.55;;;5.05;;
12208;SDS011;6167;43.080;25.634;2023-07-02T12:03:25;5.90;;;5.40;;
12208;SDS011;6167;43.080;25.634;2023-07-02T12:05:52;6.88;;;5.97;;
12208;SDS011;6167;43.080;25.634;2023-07-02T12:08:18;6.57;;;5.97;;
12208;SDS011;6167;43.080;25.634;2023-07-02T12:10:50;6.97;;;5.53;;
12208;SDS011;6167;43.080;25.634;2023-07-02T12:13:17;8.18;;;7.38;;
12208;SDS011;6167;43.080;25.634;2023-07-02T12:15:46;6.85;;;6.28;;
12208;SDS011;6167;43.080;25.634;2023-07-02T12:18:12;5.88;;;5.25;;
12208;SDS011;6167;43.080;25.634;2023-07-02T12:20:39;6.78;;;5.93;;
12208;SDS011;6167;43.080;25.634;2023-07-02T12:23:06;6.20;;;5.60;;
12208;SDS011;6167;43.080;25.634;2023-07-02T12:25:32;7.75;;;6.53;;
12208;SDS011;6167;43.080;25.634;2023-07-02T12:28:01;7.53;;;6.57;;
12208;SDS011;6167;43.080;25.634;2023-07-02T12:30:28;7.93;;;6.88;;
12208;SDS011;6167;43.080;25.634;2023-07-02T12:32:54;7.00;;;6.30;;
12208;SDS011;6167;43.080;25.634;2023-07-02T12:35:21;8.85;;;6.18;;
12208;SDS011;6167;43.080;25.634;2023-07-02T12:37:48;7.68;;;6.30;;
12208;SDS011;6167;43.080;25.634;2023-07-02T12:40:16;7.55;;;6.75;;
12208;SDS011;6167;43.080;25.634;2023-07-02T12:42:43;7.65;;;6.63;;
12208;SDS011;6167;43.080;25.634;2023-07-02T12:45:11;7.40;;;6.65;;
12208;SDS011;6167;43.080;25.634;2023-07-02T12:47:38;7.18;;;6.47;;
12208;SDS011;6167;43.080;25.634;2023-07-02T12:50:05;7.97;;;6.50;;
12208;SDS011;6167;43.080;25.634;2023-07-02T12:52:32;8.07;;;6.75;;
12208;SDS011;6167;43.080;25.634;2023-07-02T12:54:58;7.50;;;6.75;;
12208;SDS011;6167;43.080;25.634;2023-07-02T12:57:25;9.50;;;6.43;;
12208;SDS011;6167;43.080;25.634;2023-07-02T12:59:52;7.57;;;6.60;;
12208;SDS011;6167;43.080;25.634;2023-07-02T13:02:20;7.95;;;6.15;;
12208;SDS011;6167;43.080;25.634;2023-07-02T13:04:47;6.90;;;6.20;;
12208;SDS011;6167;43.080;25.634;2023-07-02T13:07:14;7.75;;;6.88;;
12208;SDS011;6167;43.080;25.634;2023-07-02T13:09:41;7.35;;;6.55;;
12208;SDS011;6167;43.080;25.634;2023-07-02T13:12:07;6.88;;;6.28;;
12208;SDS011;6167;43.080;25.634;2023-07-02T13:14:34;7.75;;;6.32;;
12208;SDS011;6167;43.080;25.634;2023-07-02T13:17:01;8.43;;;6.50;;
12208;SDS011;6167;43.080;25.634;2023-07-02T13:19:31;7.68;;;6.45;;
12208;SDS011;6167;43.080;25.634;2023-07-02T13:21:58;6.68;;;6.05;;
12208;SDS011;6167;43.080;25.634;2023-07-02T13:24:27;6.82;;;6.10;;
12208;SDS011;6167;43.080;25.634;2023-07-02T13:26:54;6.60;;;5.95;;
12208;SDS011;6167;43.080;25.634;2023-07-02T13:29:21;6.78;;;5.85;;
12208;SDS011;6167;43.080;25.634;2023-07-02T13:31:47;6.80;;;5.80;;
12208;SDS011;6167;43.080;25.634;2023-07-02T13:34:14;6.90;;;6.18;;
12208;SDS011;6167;43.080;25.634;2023-07-02T13:36:42;6.68;;;6.07;;
12208;SDS011;6167;43.080;25.634;2023-07-02T13:39:09;6.53;;;5.55;;
12208;SDS011;6167;43.080;25.634;2023-07-02T13:41:36;6.65;;;5.85;;
12208;SDS011;6167;43.080;25.634;2023-07-02T13:44:02;6.47;;;5.60;;
12208;SDS011;6167;43.080;25.634;2023-07-02T13:46:29;6.28;;;5.68;;
12208;SDS011;6167;43.080;25.634;2023-07-02T13:48:55;6.75;;;6.10;;
12208;SDS011;6167;43.080;25.634;2023-07-02T13:51:22;6.45;;;5.85;;
12208;SDS011;6167;43.080;25.634;2023-07-02T13:53:50;8.43;;;7.32;;
12208;SDS011;6167;43.080;25.634;2023-07-02T13:56:17;10.30;;;9.30;;
12208;SDS011;6167;43.080;25.634;2023-07-02T13:58:58;8.02;;;6.10;;
12208;SDS011;6167;43.080;25.634;2023-07-02T14:01:24;6.78;;;6.07;;
12208;SDS011;6167;43.080;25.634;2023-07-02T14:03:51;6.60;;;5.90;;
12208;SDS011;6167;43.080;25.634;2023-07-02T14:06:18;6.47;;;5.88;;
12208;SDS011;6167;43.080;25.634;2023-07-02T14:08:46;6.47;;;5.60;;
12208;SDS011;6167;43.080;25.634;2023-07-02T14:11:14;7.38;;;6.57;;
12208;SDS011;6167;43.080;25.634;2023-07-02T14:13:40;6.85;;;6.22;;
12208;SDS011;6167;43.080;25.634;2023-07-02T14:16:09;7.38;;;6.68;;
12208;SDS011;6167;43.080;25.634;2023-07-02T14:18:35;7.28;;;6.18;;
12208;SDS011;6167;43.080;25.634;2023-07-02T14:21:02;6.32;;;5.70;;
12208;SDS011;6167;43.080;25.634;2023-07-02T14:23:29;6.43;;;5.82;;
12208;SDS011;6167;43.080;25.634;2023-07-02T14:25:56;7.47;;;6.63;;
12208;SDS011;6167;43.080;25.634;2023-07-02T14:28:23;7.55;;;6.35;;
12208;SDS011;6167;43.080;25.634;2023-07-02T14:30:55;7.00;;;6.30;;
12208;SDS011;6167;43.080;25.634;2023-07-02T14:33:24;8.15;;;6.75;;
12208;SDS011;6167;43.080;25.634;2023-07-02T14:35:51;7.70;;;6.47;;
12208;SDS011;6167;43.080;25.634;2023-07-02T14:38:17;7.03;;;6.22;;
12208;SDS011;6167;43.080;25.634;2023-07-02T14:40:46;6.97;;;6.20;;
12208;SDS011;6167;43.080;25.634;2023-07-02T14:43:13;6.78;;;6.07;;